KMPZ/MPZ METAR and TAF weather

Enter ICAO airport designator
Station Type Date Time Source
KMPZ METAR 2019/12/08 11:15 UTC NOAA

KMPZ 081115Z AUTO 19011KT 10SM CLR 02/00 A2991 RMK AO2


Station Type Date Time Source
KMPZ Decoded METAR 2019/12/08 11:15 UTC NOAA

Mount Pleasant, Mount Pleasant Municipal Airport, IA, United States (KMPZ) 40-56-48N 091-30-40W
Dec 08, 2019 - 06:15 AM EST / 2019.12.08 1115 UTC
Wind: from the S (190 degrees) at 13 MPH (11 KT):0
Visibility: 10 mile(s):0
Sky conditions: clear
Temperature: 35 F (2 C)
Windchill: 26 F (-3 C):1
Dew Point: 32 F (0 C)
Relative Humidity: 86%
Pressure (altimeter): 29.91 in. Hg (1012 hPa)
ob: KMPZ 081115Z AUTO 19011KT 10SM CLR 02/00 A2991 RMK AO2
cycle: 11

Station Type Date Time Source
KMPZ TAF UTC NOAA

Error!

Example: see airport list